sensor_id;sensor_type;location;lat;lon;timestamp;P1;durP1;ratioP1;P2;durP2;ratioP2
79054;SDS011;68452;47.186;-1.528;2023-03-16T00:02:08;10.75;;;2.53;;
79054;SDS011;68452;47.186;-1.528;2023-03-16T00:04:35;13.10;;;3.10;;
79054;SDS011;68452;47.186;-1.528;2023-03-16T00:07:02;10.75;;;2.53;;
79054;SDS011;68452;47.186;-1.528;2023-03-16T00:09:33;7.32;;;1.77;;
79054;SDS011;68452;47.186;-1.528;2023-03-16T00:12:00;8.15;;;2.10;;
79054;SDS011;68452;47.186;-1.528;2023-03-16T00:14:27;6.63;;;1.45;;
79054;SDS011;68452;47.186;-1.528;2023-03-16T00:16:53;10.50;;;1.83;;
79054;SDS011;68452;47.186;-1.528;2023-03-16T00:19:19;5.28;;;1.90;;
79054;SDS011;68452;47.186;-1.528;2023-03-16T00:21:49;7.75;;;2.28;;
79054;SDS011;68452;47.186;-1.528;2023-03-16T00:24:15;7.22;;;1.85;;
79054;SDS011;68452;47.186;-1.528;2023-03-16T00:26:42;9.00;;;1.90;;
79054;SDS011;68452;47.186;-1.528;2023-03-16T00:29:09;10.02;;;2.30;;
79054;SDS011;68452;47.186;-1.528;2023-03-16T00:31:36;7.50;;;2.10;;
79054;SDS011;68452;47.186;-1.528;2023-03-16T00:34:03;8.48;;;2.45;;
79054;SDS011;68452;47.186;-1.528;2023-03-16T00:36:28;9.17;;;2.70;;
79054;SDS011;68452;47.186;-1.528;2023-03-16T00:38:58;7.75;;;2.33;;
79054;SDS011;68452;47.186;-1.528;2023-03-16T00:41:23;6.32;;;1.90;;
79054;SDS011;68452;47.186;-1.528;2023-03-16T00:43:49;7.78;;;2.45;;
79054;SDS011;68452;47.186;-1.528;2023-03-16T00:46:16;8.27;;;2.63;;
79054;SDS011;68452;47.186;-1.528;2023-03-16T00:48:43;7.22;;;2.42;;
79054;SDS011;68452;47.186;-1.528;2023-03-16T00:51:11;6.28;;;2.33;;
79054;SDS011;68452;47.186;-1.528;2023-03-16T00:53:40;11.80;;;2.85;;
79054;SDS011;68452;47.186;-1.528;2023-03-16T00:56:07;6.63;;;2.20;;
79054;SDS011;68452;47.186;-1.528;2023-03-16T00:58:34;9.40;;;2.40;;
79054;SDS011;68452;47.186;-1.528;2023-03-16T01:01:03;8.68;;;2.15;;
79054;SDS011;68452;47.186;-1.528;2023-03-16T01:03:30;6.05;;;2.40;;
79054;SDS011;68452;47.186;-1.528;2023-03-16T01:05:56;9.88;;;2.38;;
79054;SDS011;68452;47.186;-1.528;2023-03-16T01:08:24;7.97;;;1.75;;
79054;SDS011;68452;47.186;-1.528;2023-03-16T01:10:53;11.07;;;2.27;;
79054;SDS011;68452;47.186;-1.528;2023-03-16T01:13:20;15.00;;;6.15;;
79054;SDS011;68452;47.186;-1.528;2023-03-16T01:15:48;8.52;;;2.58;;
79054;SDS011;68452;47.186;-1.528;2023-03-16T01:18:15;9.68;;;2.20;;
79054;SDS011;68452;47.186;-1.528;2023-03-16T01:20:41;9.53;;;2.67;;
79054;SDS011;68452;47.186;-1.528;2023-03-16T01:23:14;7.90;;;2.40;;
79054;SDS011;68452;47.186;-1.528;2023-03-16T01:25:44;7.85;;;3.25;;
79054;SDS011;68452;47.186;-1.528;2023-03-16T01:28:17;9.68;;;2.50;;
79054;SDS011;68452;47.186;-1.528;2023-03-16T01:30:44;9.35;;;2.67;;
79054;SDS011;68452;47.186;-1.528;2023-03-16T01:33:10;8.13;;;2.40;;
79054;SDS011;68452;47.186;-1.528;2023-03-16T01:35:36;7.45;;;2.47;;
79054;SDS011;68452;47.186;-1.528;2023-03-16T01:38:02;10.50;;;3.10;;
79054;SDS011;68452;47.186;-1.528;2023-03-16T01:40:28;8.52;;;2.38;;
79054;SDS011;68452;47.186;-1.528;2023-03-16T01:43:01;10.87;;;2.60;;
79054;SDS011;68452;47.186;-1.528;2023-03-16T01:51:18;6.97;;;2.50;;
79054;SDS011;68452;47.186;-1.528;2023-03-16T01:54:13;9.82;;;2.80;;
79054;SDS011;68452;47.186;-1.528;2023-03-16T01:56:57;5.10;;;1.97;;
79054;SDS011;68452;47.186;-1.528;2023-03-16T01:59:40;8.85;;;2.75;;
79054;SDS011;68452;47.186;-1.528;2023-03-16T02:02:11;8.95;;;2.70;;
79054;SDS011;68452;47.186;-1.528;2023-03-16T02:04:48;8.05;;;2.40;;
79054;SDS011;68452;47.186;-1.528;2023-03-16T02:07:15;8.43;;;1.95;;
79054;SDS011;68452;47.186;-1.528;2023-03-16T02:09:43;8.60;;;2.20;;
79054;SDS011;68452;47.186;-1.528;2023-03-16T02:12:13;6.85;;;2.58;;
79054;SDS011;68452;47.186;-1.528;2023-03-16T02:14:44;10.30;;;2.53;;
79054;SDS011;68452;47.186;-1.528;2023-03-16T02:17:14;5.38;;;2.03;;
79054;SDS011;68452;47.186;-1.528;2023-03-16T02:22:48;7.10;;;2.10;;
79054;SDS011;68452;47.186;-1.528;2023-03-16T02:25:19;8.07;;;2.45;;
79054;SDS011;68452;47.186;-1.528;2023-03-16T02:30:39;8.60;;;2.78;;
79054;SDS011;68452;47.186;-1.528;2023-03-16T02:33:05;8.75;;;2.42;;
79054;SDS011;68452;47.186;-1.528;2023-03-16T02:35:31;5.97;;;2.20;;
79054;SDS011;68452;47.186;-1.528;2023-03-16T02:37:57;9.80;;;2.20;;
79054;SDS011;68452;47.186;-1.528;2023-03-16T02:40:30;9.93;;;2.55;;
79054;SDS011;68452;47.186;-1.528;2023-03-16T02:51:01;5.55;;;2.50;;
79054;SDS011;68452;47.186;-1.528;2023-03-16T02:53:28;8.10;;;2.30;;
79054;SDS011;68452;47.186;-1.528;2023-03-16T02:55:54;7.95;;;1.98;;
79054;SDS011;68452;47.186;-1.528;2023-03-16T02:58:19;9.33;;;2.70;;
79054;SDS011;68452;47.186;-1.528;2023-03-16T03:00:45;5.60;;;2.10;;
79054;SDS011;68452;47.186;-1.528;2023-03-16T03:03:11;7.97;;;2.20;;
79054;SDS011;68452;47.186;-1.528;2023-03-16T03:05:38;7.97;;;2.25;;
79054;SDS011;68452;47.186;-1.528;2023-03-16T03:08:04;6.90;;;2.00;;
79054;SDS011;68452;47.186;-1.528;2023-03-16T03:10:31;7.70;;;2.42;;
79054;SDS011;68452;47.186;-1.528;2023-03-16T03:12:57;6.28;;;2.22;;
79054;SDS011;68452;47.186;-1.528;2023-03-16T03:15:23;9.65;;;2.05;;
79054;SDS011;68452;47.186;-1.528;2023-03-16T03:17:49;6.20;;;2.00;;
79054;SDS011;68452;47.186;-1.528;2023-03-16T03:20:15;9.10;;;1.98;;
79054;SDS011;68452;47.186;-1.528;2023-03-16T03:22:42;5.03;;;1.67;;
79054;SDS011;68452;47.186;-1.528;2023-03-16T03:25:10;6.47;;;1.92;;
79054;SDS011;68452;47.186;-1.528;2023-03-16T03:27:38;7.88;;;2.15;;
79054;SDS011;68452;47.186;-1.528;2023-03-16T03:30:07;7.80;;;1.90;;
79054;SDS011;68452;47.186;-1.528;2023-03-16T03:32:37;6.68;;;1.88;;
79054;SDS011;68452;47.186;-1.528;2023-03-16T03:35:04;7.43;;;2.42;;
79054;SDS011;68452;47.186;-1.528;2023-03-16T03:37:30;6.28;;;1.95;;
79054;SDS011;68452;47.186;-1.528;2023-03-16T03:39:56;6.68;;;1.60;;
79054;SDS011;68452;47.186;-1.528;2023-03-16T03:42:22;8.27;;;2.20;;
79054;SDS011;68452;47.186;-1.528;2023-03-16T03:44:49;5.63;;;2.10;;
79054;SDS011;68452;47.186;-1.528;2023-03-16T03:47:15;4.68;;;1.70;;
79054;SDS011;68452;47.186;-1.528;2023-03-16T03:49:42;10.55;;;1.80;;
79054;SDS011;68452;47.186;-1.528;2023-03-16T03:52:08;9.37;;;1.77;;
79054;SDS011;68452;47.186;-1.528;2023-03-16T03:54:33;10.93;;;3.50;;
79054;SDS011;68452;47.186;-1.528;2023-03-16T03:56:59;6.50;;;2.08;;
79054;SDS011;68452;47.186;-1.528;2023-03-16T03:59:25;5.80;;;1.55;;
79054;SDS011;68452;47.186;-1.528;2023-03-16T04:01:51;6.87;;;1.80;;
79054;SDS011;68452;47.186;-1.528;2023-03-16T04:04:18;5.72;;;1.70;;
79054;SDS011;68452;47.186;-1.528;2023-03-16T04:06:44;5.85;;;2.22;;
79054;SDS011;68452;47.186;-1.528;2023-03-16T04:09:10;6.00;;;1.90;;
79054;SDS011;68452;47.186;-1.528;2023-03-16T04:11:36;5.17;;;1.30;;
79054;SDS011;68452;47.186;-1.528;2023-03-16T04:14:02;6.75;;;1.70;;
79054;SDS011;68452;47.186;-1.528;2023-03-16T04:16:29;5.45;;;1.20;;
79054;SDS011;68452;47.186;-1.528;2023-03-16T04:18:55;5.00;;;1.63;;
79054;SDS011;68452;47.186;-1.528;2023-03-16T04:21:21;5.43;;;1.17;;
79054;SDS011;68452;47.186;-1.528;2023-03-16T04:23:48;6.78;;;1.40;;
79054;SDS011;68452;47.186;-1.528;2023-03-16T04:26:18;5.40;;;1.40;;
79054;SDS011;68452;47.186;-1.528;2023-03-16T04:28:49;5.30;;;1.38;;
79054;SDS011;68452;47.186;-1.528;2023-03-16T04:31:17;5.97;;;1.50;;
79054;SDS011;68452;47.186;-1.528;2023-03-16T04:33:43;4.07;;;1.33;;
79054;SDS011;68452;47.186;-1.528;2023-03-16T04:36:08;6.60;;;1.50;;
79054;SDS011;68452;47.186;-1.528;2023-03-16T04:38:36;4.68;;;1.00;;
79054;SDS011;68452;47.186;-1.528;2023-03-16T04:41:02;5.95;;;1.20;;
79054;SDS011;68452;47.186;-1.528;2023-03-16T04:43:29;4.68;;;1.10;;
79054;SDS011;68452;47.186;-1.528;2023-03-16T04:46:01;5.40;;;1.00;;
79054;SDS011;68452;47.186;-1.528;2023-03-16T04:48:28;5.20;;;1.10;;
79054;SDS011;68452;47.186;-1.528;2023-03-16T04:50:56;5.78;;;1.25;;
79054;SDS011;68452;47.186;-1.528;2023-03-16T04:53:23;9.27;;;2.08;;
79054;SDS011;68452;47.186;-1.528;2023-03-16T04:55:49;4.93;;;1.40;;
79054;SDS011;68452;47.186;-1.528;2023-03-16T04:58:15;6.07;;;2.00;;
79054;SDS011;68452;47.186;-1.528;2023-03-16T05:00:41;9.98;;;1.15;;
79054;SDS011;68452;47.186;-1.528;2023-03-16T05:03:07;7.05;;;1.52;;
79054;SDS011;68452;47.186;-1.528;2023-03-16T05:05:38;5.90;;;1.33;;
79054;SDS011;68452;47.186;-1.528;2023-03-16T05:08:06;8.35;;;2.10;;
79054;SDS011;68452;47.186;-1.528;2023-03-16T05:10:32;5.67;;;1.70;;
79054;SDS011;68452;47.186;-1.528;2023-03-16T05:12:58;4.53;;;1.10;;
79054;SDS011;68452;47.186;-1.528;2023-03-16T05:15:25;6.72;;;1.13;;
79054;SDS011;68452;47.186;-1.528;2023-03-16T05:17:51;6.03;;;1.20;;
79054;SDS011;68452;47.186;-1.528;2023-03-16T05:20:18;5.87;;;1.43;;
79054;SDS011;68452;47.186;-1.528;2023-03-16T05:22:45;7.72;;;1.35;;
79054;SDS011;68452;47.186;-1.528;2023-03-16T05:25:12;5.78;;;1.65;;
79054;SDS011;68452;47.186;-1.528;2023-03-16T05:27:42;6.93;;;1.25;;
79054;SDS011;68452;47.186;-1.528;2023-03-16T05:30:16;6.10;;;1.10;;
79054;SDS011;68452;47.186;-1.528;2023-03-16T05:32:42;3.43;;;0.80;;
79054;SDS011;68452;47.186;-1.528;2023-03-16T05:35:09;5.72;;;1.13;;
79054;SDS011;68452;47.186;-1.528;2023-03-16T05:37:39;4.85;;;1.17;;
79054;SDS011;68452;47.186;-1.528;2023-03-16T05:40:07;4.60;;;1.02;;
79054;SDS011;68452;47.186;-1.528;2023-03-16T05:42:44;3.55;;;0.68;;
79054;SDS011;68452;47.186;-1.528;2023-03-16T05:45:12;5.40;;;0.93;;
79054;SDS011;68452;47.186;-1.528;2023-03-16T05:47:39;4.20;;;0.90;;
79054;SDS011;68452;47.186;-1.528;2023-03-16T05:50:06;4.32;;;0.80;;
79054;SDS011;68452;47.186;-1.528;2023-03-16T05:52:35;5.15;;;1.00;;
79054;SDS011;68452;47.186;-1.528;2023-03-16T05:55:02;4.50;;;1.10;;
79054;SDS011;68452;47.186;-1.528;2023-03-16T05:57:30;5.23;;;1.20;;
79054;SDS011;68452;47.186;-1.528;2023-03-16T05:59:56;5.90;;;1.25;;
79054;SDS011;68452;47.186;-1.528;2023-03-16T06:02:22;5.38;;;1.10;;
79054;SDS011;68452;47.186;-1.528;2023-03-16T06:04:48;4.20;;;1.13;;
79054;SDS011;68452;47.186;-1.528;2023-03-16T06:07:14;4.40;;;0.88;;
79054;SDS011;68452;47.186;-1.528;2023-03-16T06:09:39;6.40;;;0.90;;
79054;SDS011;68452;47.186;-1.528;2023-03-16T06:12:05;5.40;;;0.90;;
79054;SDS011;68452;47.186;-1.528;2023-03-16T06:14:31;6.50;;;2.00;;
79054;SDS011;68452;47.186;-1.528;2023-03-16T06:16:57;6.20;;;2.10;;
79054;SDS011;68452;47.186;-1.528;2023-03-16T06:19:23;6.97;;;2.33;;
79054;SDS011;68452;47.186;-1.528;2023-03-16T06:21:49;7.33;;;2.27;;
79054;SDS011;68452;47.186;-1.528;2023-03-16T06:24:14;4.47;;;1.58;;
79054;SDS011;68452;47.186;-1.528;2023-03-16T06:26:40;6.20;;;2.40;;
79054;SDS011;68452;47.186;-1.528;2023-03-16T06:29:06;5.70;;;2.28;;
79054;SDS011;68452;47.186;-1.528;2023-03-16T06:31:32;9.55;;;3.95;;
79054;SDS011;68452;47.186;-1.528;2023-03-16T06:33:59;4.15;;;1.30;;
79054;SDS011;68452;47.186;-1.528;2023-03-16T06:36:25;5.00;;;1.20;;
79054;SDS011;68452;47.186;-1.528;2023-03-16T06:38:51;5.32;;;1.20;;
79054;SDS011;68452;47.186;-1.528;2023-03-16T06:41:17;6.30;;;1.40;;
79054;SDS011;68452;47.186;-1.528;2023-03-16T06:43:42;3.67;;;0.90;;
79054;SDS011;68452;47.186;-1.528;2023-03-16T06:46:08;3.60;;;0.93;;
79054;SDS011;68452;47.186;-1.528;2023-03-16T06:48:35;6.20;;;1.25;;
79054;SDS011;68452;47.186;-1.528;2023-03-16T06:51:00;6.10;;;1.23;;
79054;SDS011;68452;47.186;-1.528;2023-03-16T06:53:26;5.13;;;1.33;;
79054;SDS011;68452;47.186;-1.528;2023-03-16T06:55:52;6.38;;;1.67;;
79054;SDS011;68452;47.186;-1.528;2023-03-16T06:58:18;7.78;;;1.25;;
79054;SDS011;68452;47.186;-1.528;2023-03-16T07:00:45;7.30;;;1.27;;
79054;SDS011;68452;47.186;-1.528;2023-03-16T07:03:11;4.50;;;1.20;;
79054;SDS011;68452;47.186;-1.528;2023-03-16T07:05:37;5.55;;;1.15;;
79054;SDS011;68452;47.186;-1.528;2023-03-16T07:08:03;7.07;;;1.48;;
79054;SDS011;68452;47.186;-1.528;2023-03-16T07:10:30;7.88;;;1.55;;
79054;SDS011;68452;47.186;-1.528;2023-03-16T07:12:56;4.07;;;1.10;;
79054;SDS011;68452;47.186;-1.528;2023-03-16T07:15:22;5.13;;;1.65;;
79054;SDS011;68452;47.186;-1.528;2023-03-16T07:17:50;4.40;;;1.63;;
79054;SDS011;68452;47.186;-1.528;2023-03-16T07:20:16;5.97;;;1.98;;
79054;SDS011;68452;47.186;-1.528;2023-03-16T07:22:43;40.90;;;23.83;;
79054;SDS011;68452;47.186;-1.528;2023-03-16T07:25:09;25.40;;;13.95;;
79054;SDS011;68452;47.186;-1.528;2023-03-16T07:27:36;11.90;;;8.00;;
79054;SDS011;68452;47.186;-1.528;2023-03-16T07:30:03;7.38;;;3.17;;
79054;SDS011;68452;47.186;-1.528;2023-03-16T07:32:29;7.15;;;2.35;;
79054;SDS011;68452;47.186;-1.528;2023-03-16T07:34:56;8.07;;;4.13;;
79054;SDS011;68452;47.186;-1.528;2023-03-16T07:37:23;9.13;;;4.72;;
79054;SDS011;68452;47.186;-1.528;2023-03-16T07:39:50;10.70;;;3.13;;
79054;SDS011;68452;47.186;-1.528;2023-03-16T07:42:16;16.38;;;8.80;;
79054;SDS011;68452;47.186;-1.528;2023-03-16T07:44:42;12.77;;;6.50;;
79054;SDS011;68452;47.186;-1.528;2023-03-16T07:47:09;12.20;;;5.75;;
79054;SDS011;68452;47.186;-1.528;2023-03-16T07:49:37;11.18;;;4.25;;
79054;SDS011;68452;47.186;-1.528;2023-03-16T07:52:03;6.35;;;1.90;;
79054;SDS011;68452;47.186;-1.528;2023-03-16T07:54:29;5.73;;;2.50;;
79054;SDS011;68452;47.186;-1.528;2023-03-16T07:56:55;7.50;;;2.80;;
79054;SDS011;68452;47.186;-1.528;2023-03-16T07:59:21;6.20;;;1.50;;
79054;SDS011;68452;47.186;-1.528;2023-03-16T08:01:46;4.60;;;1.80;;
79054;SDS011;68452;47.186;-1.528;2023-03-16T08:04:13;6.72;;;1.20;;
79054;SDS011;68452;47.186;-1.528;2023-03-16T08:06:39;3.42;;;1.15;;
79054;SDS011;68452;47.186;-1.528;2023-03-16T08:09:06;4.13;;;0.40;;
79054;SDS011;68452;47.186;-1.528;2023-03-16T08:11:32;5.10;;;0.60;;
79054;SDS011;68452;47.186;-1.528;2023-03-16T08:13:58;4.50;;;0.50;;
79054;SDS011;68452;47.186;-1.528;2023-03-16T08:16:24;4.43;;;0.47;;
79054;SDS011;68452;47.186;-1.528;2023-03-16T08:18:51;3.95;;;0.65;;
79054;SDS011;68452;47.186;-1.528;2023-03-16T08:21:17;3.78;;;0.30;;
79054;SDS011;68452;47.186;-1.528;2023-03-16T08:23:44;4.50;;;0.77;;
79054;SDS011;68452;47.186;-1.528;2023-03-16T08:26:16;3.28;;;0.60;;
79054;SDS011;68452;47.186;-1.528;2023-03-16T08:28:46;5.47;;;0.77;;
79054;SDS011;68452;47.186;-1.528;2023-03-16T08:31:15;2.80;;;0.40;;
79054;SDS011;68452;47.186;-1.528;2023-03-16T08:33:42;1.60;;;0.32;;
79054;SDS011;68452;47.186;-1.528;2023-03-16T08:36:09;4.10;;;0.30;;
79054;SDS011;68452;47.186;-1.528;2023-03-16T08:38:36;3.00;;;0.50;;
79054;SDS011;68452;47.186;-1.528;2023-03-16T08:41:04;3.50;;;0.50;;
79054;SDS011;68452;47.186;-1.528;2023-03-16T08:43:30;3.17;;;0.73;;
79054;SDS011;68452;47.186;-1.528;2023-03-16T08:45:56;4.57;;;0.50;;
79054;SDS011;68452;47.186;-1.528;2023-03-16T08:48:23;6.07;;;0.60;;
79054;SDS011;68452;47.186;-1.528;2023-03-16T08:50:49;3.55;;;0.47;;
79054;SDS011;68452;47.186;-1.528;2023-03-16T08:53:16;4.82;;;0.40;;
79054;SDS011;68452;47.186;-1.528;2023-03-16T08:55:42;1.50;;;0.40;;
79054;SDS011;68452;47.186;-1.528;2023-03-16T08:58:09;5.03;;;0.80;;
79054;SDS011;68452;47.186;-1.528;2023-03-16T09:00:36;4.60;;;0.60;;
79054;SDS011;68452;47.186;-1.528;2023-03-16T09:03:02;3.22;;;0.35;;
79054;SDS011;68452;47.186;-1.528;2023-03-16T09:05:29;4.38;;;0.68;;
79054;SDS011;68452;47.186;-1.528;2023-03-16T09:07:55;1.98;;;0.40;;
79054;SDS011;68452;47.186;-1.528;2023-03-16T09:10:21;2.90;;;0.40;;
79054;SDS011;68452;47.186;-1.528;2023-03-16T09:12:50;4.63;;;0.80;;
79054;SDS011;68452;47.186;-1.528;2023-03-16T09:15:17;4.97;;;1.08;;
79054;SDS011;68452;47.186;-1.528;2023-03-16T09:17:45;3.13;;;0.50;;
79054;SDS011;68452;47.186;-1.528;2023-03-16T09:20:12;5.93;;;0.73;;
79054;SDS011;68452;47.186;-1.528;2023-03-16T09:22:39;4.25;;;0.40;;
79054;SDS011;68452;47.186;-1.528;2023-03-16T09:25:06;5.80;;;2.57;;
79054;SDS011;68452;47.186;-1.528;2023-03-16T09:27:33;6.95;;;1.00;;
79054;SDS011;68452;47.186;-1.528;2023-03-16T09:30:01;3.90;;;0.43;;
79054;SDS011;68452;47.186;-1.528;2023-03-16T09:32:30;3.35;;;0.88;;
79054;SDS011;68452;47.186;-1.528;2023-03-16T09:34:57;1.75;;;0.43;;
79054;SDS011;68452;47.186;-1.528;2023-03-16T09:37:23;6.77;;;1.90;;
79054;SDS011;68452;47.186;-1.528;2023-03-16T09:39:50;4.32;;;1.00;;
79054;SDS011;68452;47.186;-1.528;2023-03-16T09:42:18;3.95;;;0.38;;
79054;SDS011;68452;47.186;-1.528;2023-03-16T09:45:07;3.83;;;0.38;;
79054;SDS011;68452;47.186;-1.528;2023-03-16T09:47:36;4.63;;;0.35;;
79054;SDS011;68452;47.186;-1.528;2023-03-16T09:50:06;1.90;;;0.33;;
79054;SDS011;68452;47.186;-1.528;2023-03-16T09:52:44;6.30;;;0.77;;
79054;SDS011;68452;47.186;-1.528;2023-03-16T09:55:35;4.30;;;0.30;;
79054;SDS011;68452;47.186;-1.528;2023-03-16T09:58:16;2.50;;;0.70;;
79054;SDS011;68452;47.186;-1.528;2023-03-16T10:06:23;4.32;;;0.90;;
79054;SDS011;68452;47.186;-1.528;2023-03-16T10:09:12;2.08;;;0.38;;
79054;SDS011;68452;47.186;-1.528;2023-03-16T10:11:48;1.85;;;0.30;;
79054;SDS011;68452;47.186;-1.528;2023-03-16T10:17:00;2.73;;;0.50;;
79054;SDS011;68452;47.186;-1.528;2023-03-16T10:19:37;4.32;;;0.30;;
79054;SDS011;68452;47.186;-1.528;2023-03-16T10:24:51;2.63;;;0.40;;
79054;SDS011;68452;47.186;-1.528;2023-03-16T10:27:24;2.75;;;0.40;;
79054;SDS011;68452;47.186;-1.528;2023-03-16T10:29:56;1.87;;;0.30;;
79054;SDS011;68452;47.186;-1.528;2023-03-16T10:32:22;3.17;;;0.40;;
79054;SDS011;68452;47.186;-1.528;2023-03-16T10:35:00;6.40;;;0.55;;
79054;SDS011;68452;47.186;-1.528;2023-03-16T10:37:46;1.83;;;0.30;;
79054;SDS011;68452;47.186;-1.528;2023-03-16T10:40:13;2.00;;;0.30;;
79054;SDS011;68452;47.186;-1.528;2023-03-16T10:42:40;3.42;;;0.30;;
79054;SDS011;68452;47.186;-1.528;2023-03-16T10:45:16;3.08;;;0.30;;
79054;SDS011;68452;47.186;-1.528;2023-03-16T10:48:10;3.78;;;0.38;;
79054;SDS011;68452;47.186;-1.528;2023-03-16T10:50:41;2.35;;;0.30;;
79054;SDS011;68452;47.186;-1.528;2023-03-16T10:53:14;4.97;;;0.60;;
79054;SDS011;68452;47.186;-1.528;2023-03-16T10:55:43;4.00;;;0.60;;
79054;SDS011;68452;47.186;-1.528;2023-03-16T10:58:22;3.03;;;0.35;;
79054;SDS011;68452;47.186;-1.528;2023-03-16T11:00:49;3.28;;;0.40;;
79054;SDS011;68452;47.186;-1.528;2023-03-16T11:03:26;3.50;;;0.40;;
79054;SDS011;68452;47.186;-1.528;2023-03-16T11:05:56;4.43;;;0.40;;
79054;SDS011;68452;47.186;-1.528;2023-03-16T11:08:30;2.78;;;0.25;;
79054;SDS011;68452;47.186;-1.528;2023-03-16T11:11:10;2.53;;;0.25;;
79054;SDS011;68452;47.186;-1.528;2023-03-16T11:13:53;5.80;;;0.63;;
79054;SDS011;68452;47.186;-1.528;2023-03-16T11:16:24;4.35;;;0.63;;
79054;SDS011;68452;47.186;-1.528;2023-03-16T11:19:02;3.90;;;0.50;;
79054;SDS011;68452;47.186;-1.528;2023-03-16T11:21:58;4.35;;;0.30;;
79054;SDS011;68452;47.186;-1.528;2023-03-16T11:30:07;4.80;;;0.60;;
79054;SDS011;68452;47.186;-1.528;2023-03-16T11:33:01;2.70;;;0.30;;
79054;SDS011;68452;47.186;-1.528;2023-03-16T11:35:32;3.53;;;0.50;;
79054;SDS011;68452;47.186;-1.528;2023-03-16T11:38:32;4.40;;;0.50;;
79054;SDS011;68452;47.186;-1.528;2023-03-16T11:41:15;5.13;;;0.50;;
79054;SDS011;68452;47.186;-1.528;2023-03-16T11:52:04;2.00;;;0.30;;
79054;SDS011;68452;47.186;-1.528;2023-03-16T11:55:00;3.70;;;0.50;;
79054;SDS011;68452;47.186;-1.528;2023-03-16T11:57:41;3.88;;;0.40;;
79054;SDS011;68452;47.186;-1.528;2023-03-16T12:04:15;5.78;;;0.50;;
79054;SDS011;68452;47.186;-1.528;2023-03-16T12:17:19;3.63;;;0.50;;
79054;SDS011;68452;47.186;-1.528;2023-03-16T12:19:57;3.78;;;0.52;;
79054;SDS011;68452;47.186;-1.528;2023-03-16T12:27:44;3.22;;;0.70;;
79054;SDS011;68452;47.186;-1.528;2023-03-16T12:30:31;6.13;;;0.60;;
79054;SDS011;68452;47.186;-1.528;2023-03-16T12:33:32;5.03;;;0.57;;
79054;SDS011;68452;47.186;-1.528;2023-03-16T12:36:17;5.30;;;0.70;;
79054;SDS011;68452;47.186;-1.528;2023-03-16T12:38:51;2.58;;;0.60;;
79054;SDS011;68452;47.186;-1.528;2023-03-16T12:47:05;3.60;;;0.52;;
79054;SDS011;68452;47.186;-1.528;2023-03-16T12:49:52;3.60;;;0.50;;
79054;SDS011;68452;47.186;-1.528;2023-03-16T12:52:20;5.20;;;0.60;;
79054;SDS011;68452;47.186;-1.528;2023-03-16T12:54:50;4.03;;;0.65;;
79054;SDS011;68452;47.186;-1.528;2023-03-16T12:57:40;2.20;;;0.32;;
79054;SDS011;68452;47.186;-1.528;2023-03-16T13:00:08;4.80;;;0.60;;
79054;SDS011;68452;47.186;-1.528;2023-03-16T13:02:36;3.17;;;0.40;;
79054;SDS011;68452;47.186;-1.528;2023-03-16T13:05:08;1.65;;;0.30;;
79054;SDS011;68452;47.186;-1.528;2023-03-16T13:07:49;3.08;;;0.50;;
79054;SDS011;68452;47.186;-1.528;2023-03-16T13:10:17;3.05;;;0.50;;
79054;SDS011;68452;47.186;-1.528;2023-03-16T13:12:46;1.83;;;0.30;;
79054;SDS011;68452;47.186;-1.528;2023-03-16T13:17:46;5.05;;;0.75;;
79054;SDS011;68452;47.186;-1.528;2023-03-16T13:23:05;3.70;;;0.60;;
79054;SDS011;68452;47.186;-1.528;2023-03-16T13:26:05;3.57;;;0.60;;
79054;SDS011;68452;47.186;-1.528;2023-03-16T13:28:59;7.43;;;0.68;;
79054;SDS011;68452;47.186;-1.528;2023-03-16T13:31:39;4.75;;;1.08;;
79054;SDS011;68452;47.186;-1.528;2023-03-16T13:34:07;3.53;;;0.50;;
79054;SDS011;68452;47.186;-1.528;2023-03-16T13:36:38;5.38;;;0.60;;
79054;SDS011;68452;47.186;-1.528;2023-03-16T13:39:12;4.30;;;0.90;;
79054;SDS011;68452;47.186;-1.528;2023-03-16T13:41:38;3.65;;;1.00;;
79054;SDS011;68452;47.186;-1.528;2023-03-16T13:44:10;2.40;;;0.68;;
79054;SDS011;68452;47.186;-1.528;2023-03-16T13:46:39;4.45;;;0.73;;
79054;SDS011;68452;47.186;-1.528;2023-03-16T13:49:04;2.70;;;0.70;;
79054;SDS011;68452;47.186;-1.528;2023-03-16T13:51:32;4.45;;;0.63;;
79054;SDS011;68452;47.186;-1.528;2023-03-16T13:54:04;4.13;;;0.95;;
79054;SDS011;68452;47.186;-1.528;2023-03-16T13:56:42;4.87;;;0.83;;
79054;SDS011;68452;47.186;-1.528;2023-03-16T13:59:08;3.10;;;0.50;;
79054;SDS011;68452;47.186;-1.528;2023-03-16T14:01:35;3.53;;;0.60;;
79054;SDS011;68452;47.186;-1.528;2023-03-16T14:04:02;4.32;;;0.70;;
79054;SDS011;68452;47.186;-1.528;2023-03-16T14:06:35;3.37;;;0.90;;
79054;SDS011;68452;47.186;-1.528;2023-03-16T14:09:04;3.13;;;0.77;;
79054;SDS011;68452;47.186;-1.528;2023-03-16T14:11:42;3.65;;;1.10;;
79054;SDS011;68452;47.186;-1.528;2023-03-16T14:14:16;3.25;;;1.10;;
79054;SDS011;68452;47.186;-1.528;2023-03-16T14:16:49;3.28;;;0.98;;
79054;SDS011;68452;47.186;-1.528;2023-03-16T14:19:19;2.63;;;0.80;;
79054;SDS011;68452;47.186;-1.528;2023-03-16T14:21:49;4.78;;;0.98;;
79054;SDS011;68452;47.186;-1.528;2023-03-16T14:24:27;3.17;;;1.10;;
79054;SDS011;68452;47.186;-1.528;2023-03-16T14:27:08;3.42;;;1.10;;
79054;SDS011;68452;47.186;-1.528;2023-03-16T14:29:50;5.35;;;0.82;;
79054;SDS011;68452;47.186;-1.528;2023-03-16T14:32:28;2.93;;;0.77;;
79054;SDS011;68452;47.186;-1.528;2023-03-16T14:35:08;2.88;;;1.10;;
79054;SDS011;68452;47.186;-1.528;2023-03-16T14:37:37;6.43;;;1.35;;
79054;SDS011;68452;47.186;-1.528;2023-03-16T14:40:17;3.42;;;1.33;;
79054;SDS011;68452;47.186;-1.528;2023-03-16T14:42:56;3.65;;;1.10;;
79054;SDS011;68452;47.186;-1.528;2023-03-16T14:45:29;4.17;;;1.20;;
79054;SDS011;68452;47.186;-1.528;2023-03-16T14:48:05;2.10;;;0.75;;
79054;SDS011;68452;47.186;-1.528;2023-03-16T14:50:41;7.30;;;1.05;;
79054;SDS011;68452;47.186;-1.528;2023-03-16T14:53:07;3.15;;;0.88;;
79054;SDS011;68452;47.186;-1.528;2023-03-16T14:55:33;5.03;;;1.13;;
79054;SDS011;68452;47.186;-1.528;2023-03-16T14:58:02;3.80;;;0.87;;
79054;SDS011;68452;47.186;-1.528;2023-03-16T15:00:28;3.90;;;0.80;;
79054;SDS011;68452;47.186;-1.528;2023-03-16T15:02:59;2.50;;;0.60;;
79054;SDS011;68452;47.186;-1.528;2023-03-16T15:05:36;2.50;;;0.35;;
79054;SDS011;68452;47.186;-1.528;2023-03-16T15:08:04;5.72;;;0.40;;
79054;SDS011;68452;47.186;-1.528;2023-03-16T15:10:36;2.20;;;0.40;;
79054;SDS011;68452;47.186;-1.528;2023-03-16T15:13:09;4.15;;;0.50;;
79054;SDS011;68452;47.186;-1.528;2023-03-16T15:15:40;6.57;;;0.60;;
79054;SDS011;68452;47.186;-1.528;2023-03-16T15:18:06;2.80;;;0.40;;
79054;SDS011;68452;47.186;-1.528;2023-03-16T15:20:34;5.43;;;0.43;;
79054;SDS011;68452;47.186;-1.528;2023-03-16T15:23:05;3.97;;;0.30;;
79054;SDS011;68452;47.186;-1.528;2023-03-16T15:25:43;1.70;;;0.30;;
79054;SDS011;68452;47.186;-1.528;2023-03-16T15:28:17;4.05;;;0.60;;
79054;SDS011;68452;47.186;-1.528;2023-03-16T15:30:45;2.97;;;0.30;;
79054;SDS011;68452;47.186;-1.528;2023-03-16T15:33:12;4.13;;;0.55;;
79054;SDS011;68452;47.186;-1.528;2023-03-16T15:35:39;3.70;;;0.40;;
79054;SDS011;68452;47.186;-1.528;2023-03-16T15:38:10;3.35;;;0.40;;
79054;SDS011;68452;47.186;-1.528;2023-03-16T15:40:41;3.55;;;0.50;;
79054;SDS011;68452;47.186;-1.528;2023-03-16T15:43:11;2.95;;;0.38;;
79054;SDS011;68452;47.186;-1.528;2023-03-16T15:45:39;4.18;;;0.50;;
79054;SDS011;68452;47.186;-1.528;2023-03-16T15:48:05;5.23;;;0.40;;
79054;SDS011;68452;47.186;-1.528;2023-03-16T15:50:31;4.13;;;0.55;;
79054;SDS011;68452;47.186;-1.528;2023-03-16T15:52:59;4.55;;;0.70;;
79054;SDS011;68452;47.186;-1.528;2023-03-16T15:58:10;3.83;;;0.40;;
79054;SDS011;68452;47.186;-1.528;2023-03-16T16:00:49;3.33;;;0.50;;
79054;SDS011;68452;47.186;-1.528;2023-03-16T16:03:19;2.05;;;0.28;;
79054;SDS011;68452;47.186;-1.528;2023-03-16T16:05:45;1.95;;;0.30;;
79054;SDS011;68452;47.186;-1.528;2023-03-16T16:08:11;6.60;;;0.90;;